56.6°F
Current conditions from King Hill
Updated every 5 minutes
 
  Friday August 1, 2014

Station Historical Data
Daily Summary for March 22, 2011 Units:  Both    English   Metric
« Previous Day
Next Day »
Daily Weekly Monthly Yearly Custom
  High: Low: Average:
Temperature: 36.4 °F /  2.4 °C 25.8 °F /  -3.4 °C 32.2 °F /  0.1 °C
Dew Point: 31.5 °F /  -0.3 °C 14.6 °F /  -9.7 °C 27 °F /  -2.8 °C
Humidity: 94% 61% 82%
Wind Speed: 8.0mph /  12.9km/h - 3.5mph /  5.6km/h
Wind Gust: 17.0mph /  27.4km/h - -
Wind- - WNW
Pressure: 30.00 in /  1015.8 hPa 29.79 in /  1008.7 hPa -
Precipitation: 0.00 in /  0 mm    
Historical Graphs
 
 
Tabular Data for March 22, 2011
Time Temperature Dew Point Pressure Wind Wind Speed Wind Gust Humidity Daily Rainfall
00:04 33.0 °F /  0.6 °C 31.5 °F /  -0.3 °C 29.79in /  1008.7hPa WSW 2.0mph /  3.2km/h 8.0mph /  12.9km/h 94% 0.00in /  0mm
00:09 32.9 °F /  0.5 °C 31.4 °F /  -0.3 °C 29.80in /  1009hPa WSW 2.0mph /  3.2km/h 6.0mph /  9.7km/h 94% 0.00in /  0mm
00:14 32.9 °F /  0.5 °C 31.4 °F /  -0.3 °C 29.80in /  1009hPa SW 1.0mph /  1.6km/h 6.0mph /  9.7km/h 94% 0.00in /  0mm
00:19 33.0 °F /  0.6 °C 31.2 °F /  -0.4 °C 29.80in /  1009hPa WSW 4.0mph /  6.4km/h 7.0mph /  11.3km/h 93% 0.00in /  0mm
00:24 33.0 °F /  0.6 °C 31.2 °F /  -0.4 °C 29.80in /  1009hPa West 3.0mph /  4.8km/h 7.0mph /  11.3km/h 93% 0.00in /  0mm
00:29 32.9 °F /  0.5 °C 31.1 °F /  -0.5 °C 29.80in /  1009hPa WSW 2.0mph /  3.2km/h 6.0mph /  9.7km/h 93% 0.00in /  0mm
00:34 33.0 °F /  0.6 °C 31.5 °F /  -0.3 °C 29.80in /  1009hPa WSW 3.0mph /  4.8km/h 6.0mph /  9.7km/h 94% 0.00in /  0mm
00:39 32.9 °F /  0.5 °C 31.4 °F /  -0.3 °C 29.81in /  1009.4hPa WSW 1.0mph /  1.6km/h 6.0mph /  9.7km/h 94% 0.00in /  0mm
00:44 32.9 °F /  0.5 °C 31.4 °F /  -0.3 °C 29.81in /  1009.4hPa Calm   4.0mph /  6.4km/h 94% 0.00in /  0mm
00:49 32.9 °F /  0.5 °C 31.4 °F /  -0.3 °C 29.81in /  1009.4hPa WSW 1.0mph /  1.6km/h 3.0mph /  4.8km/h 94% 0.00in /  0mm
00:54 32.9 °F /  0.5 °C 31.4 °F /  -0.3 °C 29.81in /  1009.4hPa WSW 1.0mph /  1.6km/h 3.0mph /  4.8km/h 94% 0.00in /  0mm
00:59 32.9 °F /  0.5 °C 31.4 °F /  -0.3 °C 29.81in /  1009.4hPa Calm   3.0mph /  4.8km/h 94% 0.00in /  0mm
01:04 32.9 °F /  0.5 °C 31.4 °F /  -0.3 °C 29.82in /  1009.7hPa NW 1.0mph /  1.6km/h 4.0mph /  6.4km/h 94% 0.00in /  0mm
01:09 32.9 °F /  0.5 °C 31.4 °F /  -0.3 °C 29.82in /  1009.7hPa WNW 2.0mph /  3.2km/h 4.0mph /  6.4km/h 94% 0.00in /  0mm
01:14 32.9 °F /  0.5 °C 31.4 °F /  -0.3 °C 29.82in /  1009.7hPa WNW 1.0mph /  1.6km/h 3.0mph /  4.8km/h 94% 0.00in /  0mm
01:19 32.9 °F /  0.5 °C 31.4 °F /  -0.3 °C 29.82in /  1009.7hPa Calm   4.0mph /  6.4km/h 94% 0.00in /  0mm
01:24 32.8 °F /  0.4 °C 31.3 °F /  -0.4 °C 29.82in /  1009.7hPa NW 4.0mph /  6.4km/h 10.0mph /  16.1km/h 94% 0.00in /  0mm
01:29 32.8 °F /  0.4 °C 31.3 °F /  -0.4 °C 29.83in /  1010hPa West 4.0mph /  6.4km/h 10.0mph /  16.1km/h 94% 0.00in /  0mm
01:34 32.7 °F /  0.4 °C 31.2 °F /  -0.4 °C 29.83in /  1010hPa Calm   8.0mph /  12.9km/h 94% 0.00in /  0mm
01:39 32.6 °F /  0.3 °C 31.1 °F /  -0.5 °C 29.83in /  1010hPa WNW 5.0mph /  8km/h 8.0mph /  12.9km/h 94% 0.00in /  0mm
01:44 32.5 °F /  0.3 °C 31.0 °F /  -0.6 °C 29.83in /  1010hPa NW 5.0mph /  8km/h 11.0mph /  17.7km/h 94% 0.00in /  0mm
01:49 32.5 °F /  0.3 °C 31.0 °F /  -0.6 °C 29.83in /  1010hPa NW 2.0mph /  3.2km/h 11.0mph /  17.7km/h 94% 0.00in /  0mm
01:54 32.4 °F /  0.2 °C 30.6 °F /  -0.8 °C 29.83in /  1010hPa NW 4.0mph /  6.4km/h 11.0mph /  17.7km/h 93% 0.00in /  0mm
02:04 32.3 °F /  0.2 °C 30.5 °F /  -0.8 °C 29.84in /  1010.4hPa NNW 5.0mph /  8km/h 10.0mph /  16.1km/h 93% 0.00in /  0mm
02:09 32.1 °F /  0.1 °C 30.3 °F /  -0.9 °C 29.84in /  1010.4hPa NW 4.0mph /  6.4km/h 9.0mph /  14.5km/h 93% 0.00in /  0mm
02:14 32.0 °F /  0 °C 30.2 °F /  -1 °C 29.84in /  1010.4hPa NW 6.0mph /  9.7km/h 16.0mph /  25.7km/h 93% 0.00in /  0mm
02:19 31.8 °F /  -0.1 °C 30.0 °F /  -1.1 °C 29.84in /  1010.4hPa WNW 5.0mph /  8km/h 16.0mph /  25.7km/h 93% 0.00in /  0mm
02:24 31.7 °F /  -0.2 °C 29.9 °F /  -1.2 °C 29.84in /  1010.4hPa WNW 7.0mph /  11.3km/h 12.0mph /  19.3km/h 93% 0.00in /  0mm
02:29 31.6 °F /  -0.2 °C 29.8 °F /  -1.2 °C 29.84in /  1010.4hPa NNW 4.0mph /  6.4km/h 12.0mph /  19.3km/h 93% 0.00in /  0mm
02:34 31.6 °F /  -0.2 °C 29.8 °F /  -1.2 °C 29.84in /  1010.4hPa NW 4.0mph /  6.4km/h 10.0mph /  16.1km/h 93% 0.00in /  0mm
02:39 31.5 °F /  -0.3 °C 29.7 °F /  -1.3 °C 29.84in /  1010.4hPa WNW 6.0mph /  9.7km/h 11.0mph /  17.7km/h 93% 0.00in /  0mm
02:44 31.4 °F /  -0.3 °C 29.6 °F /  -1.3 °C 29.84in /  1010.4hPa NW 5.0mph /  8km/h 12.0mph /  19.3km/h 93% 0.00in /  0mm
02:49 31.4 °F /  -0.3 °C 29.6 °F /  -1.3 °C 29.84in /  1010.4hPa NNW 2.0mph /  3.2km/h 12.0mph /  19.3km/h 93% 0.00in /  0mm
02:54 31.4 °F /  -0.3 °C 29.6 °F /  -1.3 °C 29.84in /  1010.4hPa NNW 3.0mph /  4.8km/h 9.0mph /  14.5km/h 93% 0.00in /  0mm
02:59 31.3 °F /  -0.4 °C 29.5 °F /  -1.4 °C 29.84in /  1010.4hPa NNW 1.0mph /  1.6km/h 9.0mph /  14.5km/h 93% 0.00in /  0mm
03:04 31.2 °F /  -0.4 °C 29.4 °F /  -1.4 °C 29.84in /  1010.4hPa WNW 4.0mph /  6.4km/h 9.0mph /  14.5km/h 93% 0.00in /  0mm
03:09 31.2 °F /  -0.4 °C 29.4 °F /  -1.4 °C 29.84in /  1010.4hPa NNW 2.0mph /  3.2km/h 9.0mph /  14.5km/h 93% 0.00in /  0mm
03:14 31.1 °F /  -0.5 °C 29.3 °F /  -1.5 °C 29.84in /  1010.4hPa NNW 5.0mph /  8km/h 9.0mph /  14.5km/h 93% 0.00in /  0mm
03:19 31.0 °F /  -0.6 °C 29.2 °F /  -1.6 °C 29.84in /  1010.4hPa NW 3.0mph /  4.8km/h 9.0mph /  14.5km/h 93% 0.00in /  0mm
03:24 31.0 °F /  -0.6 °C 29.2 °F /  -1.6 °C 29.84in /  1010.4hPa NNW 3.0mph /  4.8km/h 8.0mph /  12.9km/h 93% 0.00in /  0mm
03:29 31.0 °F /  -0.6 °C 29.2 °F /  -1.6 °C 29.84in /  1010.4hPa NNW 2.0mph /  3.2km/h 8.0mph /  12.9km/h 93% 0.00in /  0mm
03:34 31.0 °F /  -0.6 °C 29.2 °F /  -1.6 °C 29.85in /  1010.7hPa NNW 3.0mph /  4.8km/h 7.0mph /  11.3km/h 93% 0.00in /  0mm
03:39 31.0 °F /  -0.6 °C 29.2 °F /  -1.6 °C 29.84in /  1010.4hPa NNW 4.0mph /  6.4km/h 7.0mph /  11.3km/h 93% 0.00in /  0mm
03:44 31.0 °F /  -0.6 °C 29.2 °F /  -1.6 °C 29.84in /  1010.4hPa NNW 4.0mph /  6.4km/h 8.0mph /  12.9km/h 93% 0.00in /  0mm
03:49 31.0 °F /  -0.6 °C 29.5 °F /  -1.4 °C 29.85in /  1010.7hPa NW 4.0mph /  6.4km/h 11.0mph /  17.7km/h 94% 0.00in /  0mm
03:54 31.0 °F /  -0.6 °C 29.5 °F /  -1.4 °C 29.84in /  1010.4hPa NW 4.0mph /  6.4km/h 11.0mph /  17.7km/h 94% 0.00in /  0mm
03:59 31.0 °F /  -0.6 °C 29.5 °F /  -1.4 °C 29.84in /  1010.4hPa NNW 1.0mph /  1.6km/h 10.0mph /  16.1km/h 94% 0.00in /  0mm
04:04 31.0 °F /  -0.6 °C 29.5 °F /  -1.4 °C 29.85in /  1010.7hPa NW 3.0mph /  4.8km/h 7.0mph /  11.3km/h 94% 0.00in /  0mm
04:09 31.0 °F /  -0.6 °C 29.5 °F /  -1.4 °C 29.85in /  1010.7hPa NW 1.0mph /  1.6km/h 5.0mph /  8km/h 94% 0.00in /  0mm
04:14 31.0 °F /  -0.6 °C 29.5 °F /  -1.4 °C 29.85in /  1010.7hPa NW 2.0mph /  3.2km/h 6.0mph /  9.7km/h 94% 0.00in /  0mm
04:19 31.0 °F /  -0.6 °C 29.5 °F /  -1.4 °C 29.85in /  1010.7hPa NNW 4.0mph /  6.4km/h 6.0mph /  9.7km/h 94% 0.00in /  0mm
04:24 31.0 °F /  -0.6 °C 29.5 °F /  -1.4 °C 29.85in /  1010.7hPa NNW 4.0mph /  6.4km/h 7.0mph /  11.3km/h 94% 0.00in /  0mm
04:29 31.0 °F /  -0.6 °C 29.5 °F /  -1.4 °C 29.85in /  1010.7hPa NNW 3.0mph /  4.8km/h 7.0mph /  11.3km/h 94% 0.00in /  0mm
04:34 31.0 °F /  -0.6 °C 29.5 °F /  -1.4 °C 29.85in /  1010.7hPa NNW 3.0mph /  4.8km/h 7.0mph /  11.3km/h 94% 0.00in /  0mm
04:44 31.0 °F /  -0.6 °C 29.5 °F /  -1.4 °C 29.85in /  1010.7hPa NW 1.0mph /  1.6km/h 8.0mph /  12.9km/h 94% 0.00in /  0mm
04:49 31.0 °F /  -0.6 °C 29.5 °F /  -1.4 °C 29.86in /  1011.1hPa NNW 5.0mph /  8km/h 12.0mph /  19.3km/h 94% 0.00in /  0mm
04:54 31.0 °F /  -0.6 °C 29.5 °F /  -1.4 °C 29.85in /  1010.7hPa NW 5.0mph /  8km/h 12.0mph /  19.3km/h 94% 0.00in /  0mm
04:59 31.0 °F /  -0.6 °C 29.2 °F /  -1.6 °C 29.85in /  1010.7hPa NW 5.0mph /  8km/h 11.0mph /  17.7km/h 93% 0.00in /  0mm
05:04 31.0 °F /  -0.6 °C 29.2 °F /  -1.6 °C 29.85in /  1010.7hPa NW 2.0mph /  3.2km/h 11.0mph /  17.7km/h 93% 0.00in /  0mm
05:09 31.0 °F /  -0.6 °C 29.2 °F /  -1.6 °C 29.86in /  1011.1hPa NW 2.0mph /  3.2km/h 6.0mph /  9.7km/h 93% 0.00in /  0mm
05:14 31.0 °F /  -0.6 °C 29.2 °F /  -1.6 °C 29.86in /  1011.1hPa NNW 1.0mph /  1.6km/h 6.0mph /  9.7km/h 93% 0.00in /  0mm
05:19 30.9 °F /  -0.6 °C 29.1 °F /  -1.6 °C 29.86in /  1011.1hPa NW 2.0mph /  3.2km/h 9.0mph /  14.5km/h 93% 0.00in /  0mm
05:24 30.9 °F /  -0.6 °C 29.1 °F /  -1.6 °C 29.86in /  1011.1hPa NW 2.0mph /  3.2km/h 10.0mph /  16.1km/h 93% 0.00in /  0mm
05:29 30.9 °F /  -0.6 °C 29.1 °F /  -1.6 °C 29.86in /  1011.1hPa NW 2.0mph /  3.2km/h 10.0mph /  16.1km/h 93% 0.00in /  0mm
05:34 30.9 °F /  -0.6 °C 29.1 °F /  -1.6 °C 29.87in /  1011.4hPa NNW 3.0mph /  4.8km/h 9.0mph /  14.5km/h 93% 0.00in /  0mm
05:39 30.9 °F /  -0.6 °C 29.1 °F /  -1.6 °C 29.87in /  1011.4hPa NW 3.0mph /  4.8km/h 8.0mph /  12.9km/h 93% 0.00in /  0mm
05:44 30.9 °F /  -0.6 °C 29.1 °F /  -1.6 °C 29.87in /  1011.4hPa NW 2.0mph /  3.2km/h 8.0mph /  12.9km/h 93% 0.00in /  0mm
05:49 30.9 °F /  -0.6 °C 29.1 °F /  -1.6 °C 29.87in /  1011.4hPa NNW 2.0mph /  3.2km/h 7.0mph /  11.3km/h 93% 0.00in /  0mm
05:54 30.8 °F /  -0.7 °C 29.0 °F /  -1.7 °C 29.88in /  1011.7hPa NNW 1.0mph /  1.6km/h 8.0mph /  12.9km/h 93% 0.00in /  0mm
05:59 30.9 °F /  -0.6 °C 29.1 °F /  -1.6 °C 29.88in /  1011.7hPa NNW 4.0mph /  6.4km/h 8.0mph /  12.9km/h 93% 0.00in /  0mm
06:04 30.8 °F /  -0.7 °C 29.0 °F /  -1.7 °C 29.88in /  1011.7hPa NNW 3.0mph /  4.8km/h 8.0mph /  12.9km/h 93% 0.00in /  0mm
06:09 30.8 °F /  -0.7 °C 29.0 °F /  -1.7 °C 29.88in /  1011.7hPa NW 2.0mph /  3.2km/h 7.0mph /  11.3km/h 93% 0.00in /  0mm
06:14 30.9 °F /  -0.6 °C 29.1 °F /  -1.6 °C 29.88in /  1011.7hPa NNW 1.0mph /  1.6km/h 6.0mph /  9.7km/h 93% 0.00in /  0mm
06:19 30.9 °F /  -0.6 °C 29.1 °F /  -1.6 °C 29.88in /  1011.7hPa NNW 4.0mph /  6.4km/h 12.0mph /  19.3km/h 93% 0.00in /  0mm
06:24 30.8 °F /  -0.7 °C 29.0 °F /  -1.7 °C 29.88in /  1011.7hPa NW 2.0mph /  3.2km/h 12.0mph /  19.3km/h 93% 0.00in /  0mm
06:29 30.8 °F /  -0.7 °C 29.0 °F /  -1.7 °C 29.88in /  1011.7hPa NW 2.0mph /  3.2km/h 7.0mph /  11.3km/h 93% 0.00in /  0mm
06:34 30.8 °F /  -0.7 °C 29.0 °F /  -1.7 °C 29.89in /  1012.1hPa NNW 4.0mph /  6.4km/h 6.0mph /  9.7km/h 93% 0.00in /  0mm
06:39 30.8 °F /  -0.7 °C 29.0 °F /  -1.7 °C 29.89in /  1012.1hPa North 2.0mph /  3.2km/h 8.0mph /  12.9km/h 93% 0.00in /  0mm
06:44 30.8 °F /  -0.7 °C 29.0 °F /  -1.7 °C 29.89in /  1012.1hPa North 3.0mph /  4.8km/h 12.0mph /  19.3km/h 93% 0.00in /  0mm
06:49 30.8 °F /  -0.7 °C 29.0 °F /  -1.7 °C 29.89in /  1012.1hPa NNW 4.0mph /  6.4km/h 12.0mph /  19.3km/h 93% 0.00in /  0mm
06:54 30.8 °F /  -0.7 °C 28.8 °F /  -1.8 °C 29.89in /  1012.1hPa NNW 1.0mph /  1.6km/h 9.0mph /  14.5km/h 92% 0.00in /  0mm
06:59 30.7 °F /  -0.7 °C 28.7 °F /  -1.8 °C 29.90in /  1012.4hPa NNW 3.0mph /  4.8km/h 9.0mph /  14.5km/h 92% 0.00in /  0mm
07:04 30.8 °F /  -0.7 °C 28.8 °F /  -1.8 °C 29.90in /  1012.4hPa NNW 3.0mph /  4.8km/h 8.0mph /  12.9km/h 92% 0.00in /  0mm
07:09 30.7 °F /  -0.7 °C 28.7 °F /  -1.8 °C 29.90in /  1012.4hPa NNW 2.0mph /  3.2km/h 8.0mph /  12.9km/h 92% 0.00in /  0mm
07:14 30.7 °F /  -0.7 °C 28.7 °F /  -1.8 °C 29.90in /  1012.4hPa NW 4.0mph /  6.4km/h 11.0mph /  17.7km/h 92% 0.00in /  0mm
07:19 30.7 °F /  -0.7 °C 28.7 °F /  -1.8 °C 29.90in /  1012.4hPa NNW 3.0mph /  4.8km/h 11.0mph /  17.7km/h 92% 0.00in /  0mm
07:24 30.7 °F /  -0.7 °C 28.7 °F /  -1.8 °C 29.91in /  1012.8hPa NNW 5.0mph /  8km/h 9.0mph /  14.5km/h 92% 0.00in /  0mm
07:30 30.7 °F /  -0.7 °C 28.7 °F /  -1.8 °C 29.91in /  1012.8hPa NNW 5.0mph /  8km/h 13.0mph /  20.9km/h 92% 0.00in /  0mm
07:34 30.8 °F /  -0.7 °C 28.8 °F /  -1.8 °C 29.91in /  1012.8hPa NNW 4.0mph /  6.4km/h 13.0mph /  20.9km/h 92% 0.00in /  0mm
07:39 30.8 °F /  -0.7 °C 28.5 °F /  -1.9 °C 29.91in /  1012.8hPa NNW 4.0mph /  6.4km/h 10.0mph /  16.1km/h 91% 0.00in /  0mm
07:44 30.8 °F /  -0.7 °C 28.5 °F /  -1.9 °C 29.91in /  1012.8hPa NNW 4.0mph /  6.4km/h 10.0mph /  16.1km/h 91% 0.00in /  0mm
07:49 30.8 °F /  -0.7 °C 28.5 °F /  -1.9 °C 29.91in /  1012.8hPa NNW 2.0mph /  3.2km/h 10.0mph /  16.1km/h 91% 0.00in /  0mm
07:54 30.9 °F /  -0.6 °C 28.6 °F /  -1.9 °C 29.91in /  1012.8hPa NNW 4.0mph /  6.4km/h 9.0mph /  14.5km/h 91% 0.00in /  0mm
07:59 30.9 °F /  -0.6 °C 28.6 °F /  -1.9 °C 29.91in /  1012.8hPa North 2.0mph /  3.2km/h 9.0mph /  14.5km/h 91% 0.00in /  0mm
08:04 30.9 °F /  -0.6 °C 28.6 °F /  -1.9 °C 29.91in /  1012.8hPa NNW 2.0mph /  3.2km/h 7.0mph /  11.3km/h 91% 0.00in /  0mm
08:09 31.0 °F /  -0.6 °C 28.4 °F /  -2 °C 29.91in /  1012.8hPa NNW 1.0mph /  1.6km/h 7.0mph /  11.3km/h 90% 0.00in /  0mm
08:14 31.0 °F /  -0.6 °C 28.4 °F /  -2 °C 29.91in /  1012.8hPa NNW 5.0mph /  8km/h 9.0mph /  14.5km/h 90% 0.00in /  0mm
08:19 31.0 °F /  -0.6 °C 28.4 °F /  -2 °C 29.91in /  1012.8hPa NNW 5.0mph /  8km/h 10.0mph /  16.1km/h 90% 0.00in /  0mm
08:24 31.1 °F /  -0.5 °C 28.5 °F /  -1.9 °C 29.90in /  1012.4hPa NW 4.0mph /  6.4km/h 10.0mph /  16.1km/h 90% 0.00in /  0mm
08:29 31.2 °F /  -0.4 °C 28.6 °F /  -1.9 °C 29.90in /  1012.4hPa NW 3.0mph /  4.8km/h 8.0mph /  12.9km/h 90% 0.00in /  0mm
08:34 31.2 °F /  -0.4 °C 28.6 °F /  -1.9 °C 29.90in /  1012.4hPa NW 5.0mph /  8km/h 8.0mph /  12.9km/h 90% 0.00in /  0mm
08:39 31.4 °F /  -0.3 °C 28.5 °F /  -1.9 °C 29.91in /  1012.8hPa NNW 4.0mph /  6.4km/h 11.0mph /  17.7km/h 89% 0.00in /  0mm
08:44 31.4 °F /  -0.3 °C 28.5 °F /  -1.9 °C 29.91in /  1012.8hPa NW 3.0mph /  4.8km/h 11.0mph /  17.7km/h 89% 0.00in /  0mm
08:49 31.5 °F /  -0.3 °C 28.6 °F /  -1.9 °C 29.91in /  1012.8hPa NNW 3.0mph /  4.8km/h 9.0mph /  14.5km/h 89% 0.00in /  0mm
08:54 31.7 °F /  -0.2 °C 28.8 °F /  -1.8 °C 29.91in /  1012.8hPa North 2.0mph /  3.2km/h 6.0mph /  9.7km/h 89% 0.00in /  0mm
08:59 31.8 °F /  -0.1 °C 28.7 °F /  -1.8 °C 29.91in /  1012.8hPa NNW 2.0mph /  3.2km/h 6.0mph /  9.7km/h 88% 0.00in /  0mm
09:04 31.8 °F /  -0.1 °C 28.4 °F /  -2 °C 29.92in /  1013.1hPa NNW 1.0mph /  1.6km/h 11.0mph /  17.7km/h 87% 0.00in /  0mm
09:09 31.7 °F /  -0.2 °C 28.3 °F /  -2.1 °C 29.92in /  1013.1hPa NNW 5.0mph /  8km/h 11.0mph /  17.7km/h 87% 0.00in /  0mm
09:14 31.7 °F /  -0.2 °C 28.3 °F /  -2.1 °C 29.92in /  1013.1hPa NNW 4.0mph /  6.4km/h 11.0mph /  17.7km/h 87% 0.00in /  0mm
09:19 31.7 °F /  -0.2 °C 28.3 °F /  -2.1 °C 29.92in /  1013.1hPa NNW 3.0mph /  4.8km/h 11.0mph /  17.7km/h 87% 0.00in /  0mm
09:24 31.7 °F /  -0.2 °C 28.0 °F /  -2.2 °C 29.93in /  1013.4hPa NW 3.0mph /  4.8km/h 8.0mph /  12.9km/h 86% 0.00in /  0mm
09:34 31.8 °F /  -0.1 °C 28.1 °F /  -2.2 °C 29.93in /  1013.4hPa NW 3.0mph /  4.8km/h 12.0mph /  19.3km/h 86% 0.00in /  0mm
09:39 31.9 °F /  -0.1 °C 28.2 °F /  -2.1 °C 29.93in /  1013.4hPa NNW 2.0mph /  3.2km/h 8.0mph /  12.9km/h 86% 0.00in /  0mm
09:44 32.0 °F /  0 °C 28.0 °F /  -2.2 °C 29.93in /  1013.4hPa NNW 3.0mph /  4.8km/h 8.0mph /  12.9km/h 85% 0.00in /  0mm
09:49 32.2 °F /  0.1 °C 27.9 °F /  -2.3 °C 29.93in /  1013.4hPa NNW 4.0mph /  6.4km/h 8.0mph /  12.9km/h 84% 0.00in /  0mm
09:54 32.2 °F /  0.1 °C 28.2 °F /  -2.1 °C 29.93in /  1013.4hPa North 1.0mph /  1.6km/h 7.0mph /  11.3km/h 85% 0.00in /  0mm
09:59 32.3 °F /  0.2 °C 28.3 °F /  -2.1 °C 29.93in /  1013.4hPa NNW 1.0mph /  1.6km/h 6.0mph /  9.7km/h 85% 0.00in /  0mm
10:04 32.4 °F /  0.2 °C 28.4 °F /  -2 °C 29.93in /  1013.4hPa NNW 3.0mph /  4.8km/h 5.0mph /  8km/h 85% 0.00in /  0mm
10:09 32.2 °F /  0.1 °C 28.2 °F /  -2.1 °C 29.93in /  1013.4hPa NW 1.0mph /  1.6km/h 8.0mph /  12.9km/h 85% 0.00in /  0mm
10:14 32.3 °F /  0.2 °C 28.3 °F /  -2.1 °C 29.94in /  1013.8hPa NNW 4.0mph /  6.4km/h 8.0mph /  12.9km/h 85% 0.00in /  0mm
10:19 32.3 °F /  0.2 °C 28.3 °F /  -2.1 °C 29.93in /  1013.4hPa NW 4.0mph /  6.4km/h 9.0mph /  14.5km/h 85% 0.00in /  0mm
10:24 32.4 °F /  0.2 °C 28.4 °F /  -2 °C 29.94in /  1013.8hPa NW 4.0mph /  6.4km/h 9.0mph /  14.5km/h 85% 0.00in /  0mm
10:29 32.6 °F /  0.3 °C 28.6 °F /  -1.9 °C 29.94in /  1013.8hPa NNW 4.0mph /  6.4km/h 11.0mph /  17.7km/h 85% 0.00in /  0mm
10:34 32.8 °F /  0.4 °C 28.8 °F /  -1.8 °C 29.94in /  1013.8hPa NNW 3.0mph /  4.8km/h 12.0mph /  19.3km/h 85% 0.00in /  0mm
10:39 33.0 °F /  0.6 °C 29.0 °F /  -1.7 °C 29.94in /  1013.8hPa NW 2.0mph /  3.2km/h 12.0mph /  19.3km/h 85% 0.00in /  0mm
10:44 33.2 °F /  0.7 °C 28.9 °F /  -1.7 °C 29.93in /  1013.4hPa NNW 5.0mph /  8km/h 11.0mph /  17.7km/h 84% 0.00in /  0mm
10:49 33.3 °F /  0.7 °C 29.0 °F /  -1.7 °C 29.94in /  1013.8hPa NNW 1.0mph /  1.6km/h 8.0mph /  12.9km/h 84% 0.00in /  0mm
10:54 33.3 °F /  0.7 °C 28.7 °F /  -1.8 °C 29.93in /  1013.4hPa NW 5.0mph /  8km/h 11.0mph /  17.7km/h 83% 0.00in /  0mm
10:59 32.9 °F /  0.5 °C 28.3 °F /  -2.1 °C 29.94in /  1013.8hPa NNW 4.0mph /  6.4km/h 12.0mph /  19.3km/h 83% 0.00in /  0mm
11:04 33.0 °F /  0.6 °C 28.4 °F /  -2 °C 29.93in /  1013.4hPa NW 5.0mph /  8km/h 12.0mph /  19.3km/h 83% 0.00in /  0mm
11:09 32.9 °F /  0.5 °C 28.3 °F /  -2.1 °C 29.94in /  1013.8hPa NNW 4.0mph /  6.4km/h 11.0mph /  17.7km/h 83% 0.00in /  0mm
11:14 33.0 °F /  0.6 °C 28.4 °F /  -2 °C 29.94in /  1013.8hPa NNW 5.0mph /  8km/h 11.0mph /  17.7km/h 83% 0.00in /  0mm
11:19 33.1 °F /  0.6 °C 28.5 °F /  -1.9 °C 29.94in /  1013.8hPa NNW 4.0mph /  6.4km/h 10.0mph /  16.1km/h 83% 0.00in /  0mm
11:24 33.2 °F /  0.7 °C 28.3 °F /  -2.1 °C 29.94in /  1013.8hPa NNW 5.0mph /  8km/h 10.0mph /  16.1km/h 82% 0.00in /  0mm
11:29 33.3 °F /  0.7 °C 28.1 °F /  -2.2 °C 29.94in /  1013.8hPa NNW 4.0mph /  6.4km/h 10.0mph /  16.1km/h 81% 0.00in /  0mm
11:34 33.6 °F /  0.9 °C 28.4 °F /  -2 °C 29.93in /  1013.4hPa NW 2.0mph /  3.2km/h 10.0mph /  16.1km/h 81% 0.00in /  0mm
11:39 33.6 °F /  0.9 °C 28.4 °F /  -2 °C 29.93in /  1013.4hPa NW 4.0mph /  6.4km/h 10.0mph /  16.1km/h 81% 0.00in /  0mm
11:44 33.8 °F /  1 °C 28.9 °F /  -1.7 °C 29.93in /  1013.4hPa North 1.0mph /  1.6km/h 9.0mph /  14.5km/h 82% 0.00in /  0mm
11:49 33.8 °F /  1 °C 28.3 °F /  -2.1 °C 29.93in /  1013.4hPa NNW 6.0mph /  9.7km/h 10.0mph /  16.1km/h 80% 0.00in /  0mm
11:54 33.9 °F /  1.1 °C 28.4 °F /  -2 °C 29.93in /  1013.4hPa NNW 3.0mph /  4.8km/h 10.0mph /  16.1km/h 80% 0.00in /  0mm
11:59 34.0 °F /  1.1 °C 28.2 °F /  -2.1 °C 29.93in /  1013.4hPa NW 2.0mph /  3.2km/h 9.0mph /  14.5km/h 79% 0.00in /  0mm
12:04 34.3 °F /  1.3 °C 28.8 °F /  -1.8 °C 29.93in /  1013.4hPa NNW 1.0mph /  1.6km/h 7.0mph /  11.3km/h 80% 0.00in /  0mm
12:09 34.4 °F /  1.3 °C 28.6 °F /  -1.9 °C 29.93in /  1013.4hPa North 3.0mph /  4.8km/h 6.0mph /  9.7km/h 79% 0.00in /  0mm
12:14 34.4 °F /  1.3 °C 28.3 °F /  -2.1 °C 29.93in /  1013.4hPa NNW 3.0mph /  4.8km/h 6.0mph /  9.7km/h 78% 0.00in /  0mm
12:19 34.6 °F /  1.4 °C 28.8 °F /  -1.8 °C 29.93in /  1013.4hPa NNW 2.0mph /  3.2km/h 6.0mph /  9.7km/h 79% 0.00in /  0mm
12:24 34.5 °F /  1.4 °C 28.4 °F /  -2 °C 29.93in /  1013.4hPa NNW 4.0mph /  6.4km/h 8.0mph /  12.9km/h 78% 0.00in /  0mm
12:29 34.4 °F /  1.3 °C 27.9 °F /  -2.3 °C 29.93in /  1013.4hPa NNW 5.0mph /  8km/h 8.0mph /  12.9km/h 77% 0.00in /  0mm
12:34 34.4 °F /  1.3 °C 27.6 °F /  -2.4 °C 29.93in /  1013.4hPa NW 6.0mph /  9.7km/h 11.0mph /  17.7km/h 76% 0.00in /  0mm
12:39 34.2 °F /  1.2 °C 27.4 °F /  -2.6 °C 29.93in /  1013.4hPa NW 6.0mph /  9.7km/h 11.0mph /  17.7km/h 76% 0.00in /  0mm
12:44 34.0 °F /  1.1 °C 27.6 °F /  -2.4 °C 29.93in /  1013.4hPa NNW 4.0mph /  6.4km/h 10.0mph /  16.1km/h 77% 0.00in /  0mm
12:49 33.9 °F /  1.1 °C 27.5 °F /  -2.5 °C 29.93in /  1013.4hPa NW 4.0mph /  6.4km/h 11.0mph /  17.7km/h 77% 0.00in /  0mm
12:54 34.0 °F /  1.1 °C 27.6 °F /  -2.4 °C 29.93in /  1013.4hPa NW 4.0mph /  6.4km/h 11.0mph /  17.7km/h 77% 0.00in /  0mm
12:59 34.1 °F /  1.2 °C 27.3 °F /  -2.6 °C 29.93in /  1013.4hPa NW 8.0mph /  12.9km/h 11.0mph /  17.7km/h 76% 0.00in /  0mm
13:04 34.1 °F /  1.2 °C 27.7 °F /  -2.4 °C 29.93in /  1013.4hPa NW 3.0mph /  4.8km/h 11.0mph /  17.7km/h 77% 0.00in /  0mm
13:09 34.4 °F /  1.3 °C 27.6 °F /  -2.4 °C 29.93in /  1013.4hPa North 3.0mph /  4.8km/h 11.0mph /  17.7km/h 76% 0.00in /  0mm
13:14 35.0 °F /  1.7 °C 28.2 °F /  -2.1 °C 29.93in /  1013.4hPa North 3.0mph /  4.8km/h 11.0mph /  17.7km/h 76% 0.00in /  0mm
13:19 35.5 °F /  1.9 °C 27.7 °F /  -2.4 °C 29.93in /  1013.4hPa NNW 3.0mph /  4.8km/h 11.0mph /  17.7km/h 73% 0.00in /  0mm
13:24 36.2 °F /  2.3 °C 28.0 °F /  -2.2 °C 29.93in /  1013.4hPa North 4.0mph /  6.4km/h 11.0mph /  17.7km/h 72% 0.00in /  0mm
13:29 36.4 °F /  2.4 °C 28.2 °F /  -2.1 °C 29.93in /  1013.4hPa NW 5.0mph /  8km/h 9.0mph /  14.5km/h 72% 0.00in /  0mm
13:34 35.5 °F /  1.9 °C 27.4 °F /  -2.6 °C 29.93in /  1013.4hPa NW 4.0mph /  6.4km/h 12.0mph /  19.3km/h 72% 0.00in /  0mm
13:39 35.3 °F /  1.8 °C 27.5 °F /  -2.5 °C 29.93in /  1013.4hPa NNW 4.0mph /  6.4km/h 12.0mph /  19.3km/h 73% 0.00in /  0mm
13:44 35.3 °F /  1.8 °C 27.2 °F /  -2.7 °C 29.93in /  1013.4hPa NW 5.0mph /  8km/h 11.0mph /  17.7km/h 72% 0.00in /  0mm
13:49 35.4 °F /  1.9 °C 27.3 °F /  -2.6 °C 29.93in /  1013.4hPa NNW 3.0mph /  4.8km/h 10.0mph /  16.1km/h 72% 0.00in /  0mm
13:54 35.6 °F /  2 °C 27.1 °F /  -2.7 °C 29.93in /  1013.4hPa NNW 3.0mph /  4.8km/h 9.0mph /  14.5km/h 71% 0.00in /  0mm
13:59 35.7 °F /  2.1 °C 27.2 °F /  -2.7 °C 29.93in /  1013.4hPa NNW 7.0mph /  11.3km/h 12.0mph /  19.3km/h 71% 0.00in /  0mm
14:04 35.6 °F /  2 °C 26.4 °F /  -3.1 °C 29.93in /  1013.4hPa NW 4.0mph /  6.4km/h 12.0mph /  19.3km/h 69% 0.00in /  0mm
14:09 35.6 °F /  2 °C 26.4 °F /  -3.1 °C 29.93in /  1013.4hPa NNW 4.0mph /  6.4km/h 10.0mph /  16.1km/h 69% 0.00in /  0mm
14:14 35.4 °F /  1.9 °C 26.2 °F /  -3.2 °C 29.93in /  1013.4hPa NNW 2.0mph /  3.2km/h 12.0mph /  19.3km/h 69% 0.00in /  0mm
14:19 35.2 °F /  1.8 °C 26.1 °F /  -3.3 °C 29.93in /  1013.4hPa NNW 4.0mph /  6.4km/h 12.0mph /  19.3km/h 69% 0.00in /  0mm
14:24 35.1 °F /  1.7 °C 26.3 °F /  -3.2 °C 29.92in /  1013.1hPa NNW 5.0mph /  8km/h 14.0mph /  22.5km/h 70% 0.00in /  0mm
14:29 35.2 °F /  1.8 °C 26.4 °F /  -3.1 °C 29.92in /  1013.1hPa NNW 4.0mph /  6.4km/h 14.0mph /  22.5km/h 70% 0.00in /  0mm
14:34 35.7 °F /  2.1 °C 26.5 °F /  -3.1 °C 29.92in /  1013.1hPa NNE 2.0mph /  3.2km/h 13.0mph /  20.9km/h 69% 0.00in /  0mm
14:39 36.2 °F /  2.3 °C 27.4 °F /  -2.6 °C 29.92in /  1013.1hPa NNW 3.0mph /  4.8km/h 9.0mph /  14.5km/h 70% 0.00in /  0mm
14:44 35.8 °F /  2.1 °C 26.6 °F /  -3 °C 29.92in /  1013.1hPa NNW 6.0mph /  9.7km/h 11.0mph /  17.7km/h 69% 0.00in /  0mm
14:49 35.5 °F /  1.9 °C 26.7 °F /  -2.9 °C 29.92in /  1013.1hPa NW 3.0mph /  4.8km/h 11.0mph /  17.7km/h 70% 0.00in /  0mm
14:54 35.6 °F /  2 °C 27.1 °F /  -2.7 °C 29.92in /  1013.1hPa North 2.0mph /  3.2km/h 11.0mph /  17.7km/h 71% 0.00in /  0mm
14:59 35.7 °F /  2.1 °C 27.2 °F /  -2.7 °C 29.92in /  1013.1hPa NNW 2.0mph /  3.2km/h 8.0mph /  12.9km/h 71% 0.00in /  0mm
15:04 35.6 °F /  2 °C 26.8 °F /  -2.9 °C 29.92in /  1013.1hPa NNW 4.0mph /  6.4km/h 11.0mph /  17.7km/h 70% 0.00in /  0mm
15:09 35.4 °F /  1.9 °C 26.6 °F /  -3 °C 29.92in /  1013.1hPa NNW 3.0mph /  4.8km/h 11.0mph /  17.7km/h 70% 0.00in /  0mm
15:14 35.4 °F /  1.9 °C 27.3 °F /  -2.6 °C 29.92in /  1013.1hPa NNW 2.0mph /  3.2km/h 7.0mph /  11.3km/h 72% 0.00in /  0mm
15:19 35.3 °F /  1.8 °C 26.8 °F /  -2.9 °C 29.93in /  1013.4hPa NW 2.0mph /  3.2km/h 8.0mph /  12.9km/h 71% 0.00in /  0mm
15:24 35.4 °F /  1.9 °C 27.3 °F /  -2.6 °C 29.93in /  1013.4hPa NNW 4.0mph /  6.4km/h 8.0mph /  12.9km/h 72% 0.00in /  0mm
15:29 35.2 °F /  1.8 °C 26.7 °F /  -2.9 °C 29.93in /  1013.4hPa NNW 3.0mph /  4.8km/h 10.0mph /  16.1km/h 71% 0.00in /  0mm
15:34 35.1 °F /  1.7 °C 27.0 °F /  -2.8 °C 29.93in /  1013.4hPa NW 1.0mph /  1.6km/h 10.0mph /  16.1km/h 72% 0.00in /  0mm
15:39 35.1 °F /  1.7 °C 27.0 °F /  -2.8 °C 29.93in /  1013.4hPa NW 3.0mph /  4.8km/h 7.0mph /  11.3km/h 72% 0.00in /  0mm
15:44 35.1 °F /  1.7 °C 27.0 °F /  -2.8 °C 29.93in /  1013.4hPa NNW 3.0mph /  4.8km/h 7.0mph /  11.3km/h 72% 0.00in /  0mm
15:49 35.2 °F /  1.8 °C 27.1 °F /  -2.7 °C 29.93in /  1013.4hPa NW 2.0mph /  3.2km/h 7.0mph /  11.3km/h 72% 0.00in /  0mm
15:54 35.2 °F /  1.8 °C 27.4 °F /  -2.6 °C 29.93in /  1013.4hPa NNW 1.0mph /  1.6km/h 5.0mph /  8km/h 73% 0.00in /  0mm
15:59 35.0 °F /  1.7 °C 26.9 °F /  -2.8 °C 29.93in /  1013.4hPa NW 4.0mph /  6.4km/h 9.0mph /  14.5km/h 72% 0.00in /  0mm
16:04 35.2 °F /  1.8 °C 27.4 °F /  -2.6 °C 29.94in /  1013.8hPa NW 5.0mph /  8km/h 9.0mph /  14.5km/h 73% 0.00in /  0mm
16:09 35.1 °F /  1.7 °C 28.3 °F /  -2.1 °C 29.94in /  1013.8hPa NW 3.0mph /  4.8km/h 8.0mph /  12.9km/h 76% 0.00in /  0mm
16:14 35.0 °F /  1.7 °C 28.2 °F /  -2.1 °C 29.94in /  1013.8hPa NW 4.0mph /  6.4km/h 7.0mph /  11.3km/h 76% 0.00in /  0mm
16:19 34.8 °F /  1.6 °C 28.3 °F /  -2.1 °C 29.94in /  1013.8hPa NNW 3.0mph /  4.8km/h 8.0mph /  12.9km/h 77% 0.00in /  0mm
16:24 34.4 °F /  1.3 °C 28.6 °F /  -1.9 °C 29.94in /  1013.8hPa North 3.0mph /  4.8km/h 8.0mph /  12.9km/h 79% 0.00in /  0mm
16:29 34.4 °F /  1.3 °C 29.2 °F /  -1.6 °C 29.94in /  1013.8hPa NNW 4.0mph /  6.4km/h 10.0mph /  16.1km/h 81% 0.00in /  0mm
16:34 34.3 °F /  1.3 °C 29.1 °F /  -1.6 °C 29.94in /  1013.8hPa NNW 3.0mph /  4.8km/h 10.0mph /  16.1km/h 81% 0.00in /  0mm
16:39 34.2 °F /  1.2 °C 29.0 °F /  -1.7 °C 29.94in /  1013.8hPa NNW 3.0mph /  4.8km/h 10.0mph /  16.1km/h 81% 0.00in /  0mm
16:44 34.1 °F /  1.2 °C 28.6 °F /  -1.9 °C 29.94in /  1013.8hPa NNW 5.0mph /  8km/h 13.0mph /  20.9km/h 80% 0.00in /  0mm
16:49 33.8 °F /  1 °C 28.0 °F /  -2.2 °C 29.94in /  1013.8hPa NNW 8.0mph /  12.9km/h 14.0mph /  22.5km/h 79% 0.00in /  0mm
16:54 33.4 °F /  0.8 °C 27.9 °F /  -2.3 °C 29.94in /  1013.8hPa NNW 6.0mph /  9.7km/h 16.0mph /  25.7km/h 80% 0.00in /  0mm
16:59 33.3 °F /  0.7 °C 28.4 °F /  -2 °C 29.94in /  1013.8hPa NNW 5.0mph /  8km/h 16.0mph /  25.7km/h 82% 0.00in /  0mm
17:04 33.1 °F /  0.6 °C 28.5 °F /  -1.9 °C 29.94in /  1013.8hPa NNW 2.0mph /  3.2km/h 9.0mph /  14.5km/h 83% 0.00in /  0mm
17:09 33.3 °F /  0.7 °C 29.0 °F /  -1.7 °C 29.94in /  1013.8hPa NNW 3.0mph /  4.8km/h 7.0mph /  11.3km/h 84% 0.00in /  0mm
17:14 33.5 °F /  0.8 °C 29.2 °F /  -1.6 °C 29.94in /  1013.8hPa NNW 2.0mph /  3.2km/h 8.0mph /  12.9km/h 84% 0.00in /  0mm
17:19 33.6 °F /  0.9 °C 29.3 °F /  -1.5 °C 29.94in /  1013.8hPa NNE 2.0mph /  3.2km/h 8.0mph /  12.9km/h 84% 0.00in /  0mm
17:24 33.7 °F /  0.9 °C 29.4 °F /  -1.4 °C 29.94in /  1013.8hPa NNW 2.0mph /  3.2km/h 7.0mph /  11.3km/h 84% 0.00in /  0mm
17:29 33.5 °F /  0.8 °C 29.2 °F /  -1.6 °C 29.94in /  1013.8hPa NNW 2.0mph /  3.2km/h 7.0mph /  11.3km/h 84% 0.00in /  0mm
17:35 33.5 °F /  0.8 °C 29.2 °F /  -1.6 °C 29.94in /  1013.8hPa Calm   6.0mph /  9.7km/h 84% 0.00in /  0mm
17:44 33.3 °F /  0.7 °C 28.7 °F /  -1.8 °C 29.94in /  1013.8hPa NW 3.0mph /  4.8km/h 8.0mph /  12.9km/h 83% 0.00in /  0mm
17:49 33.2 °F /  0.7 °C 28.9 °F /  -1.7 °C 29.94in /  1013.8hPa NW 3.0mph /  4.8km/h 8.0mph /  12.9km/h 84% 0.00in /  0mm
17:54 33.2 °F /  0.7 °C 28.9 °F /  -1.7 °C 29.94in /  1013.8hPa NW 3.0mph /  4.8km/h 8.0mph /  12.9km/h 84% 0.00in /  0mm
17:59 33.2 °F /  0.7 °C 28.9 °F /  -1.7 °C 29.94in /  1013.8hPa NW 2.0mph /  3.2km/h 8.0mph /  12.9km/h 84% 0.00in /  0mm
18:04 33.2 °F /  0.7 °C 28.9 °F /  -1.7 °C 29.94in /  1013.8hPa NW 3.0mph /  4.8km/h 6.0mph /  9.7km/h 84% 0.00in /  0mm
18:09 33.3 °F /  0.7 °C 28.7 °F /  -1.8 °C 29.94in /  1013.8hPa NNW 2.0mph /  3.2km/h 6.0mph /  9.7km/h 83% 0.00in /  0mm
18:14 33.4 °F /  0.8 °C 28.8 °F /  -1.8 °C 29.94in /  1013.8hPa NW 3.0mph /  4.8km/h 6.0mph /  9.7km/h 83% 0.00in /  0mm
18:19 33.8 °F /  1 °C 29.2 °F /  -1.6 °C 29.94in /  1013.8hPa NW 1.0mph /  1.6km/h 5.0mph /  8km/h 83% 0.00in /  0mm
18:24 34.4 °F /  1.3 °C 28.3 °F /  -2.1 °C 29.95in /  1014.1hPa NW 6.0mph /  9.7km/h 16.0mph /  25.7km/h 78% 0.00in /  0mm
18:29 34.4 °F /  1.3 °C 27.0 °F /  -2.8 °C 29.94in /  1013.8hPa NW 7.0mph /  11.3km/h 16.0mph /  25.7km/h 74% 0.00in /  0mm
18:34 34.5 °F /  1.4 °C 26.7 °F /  -2.9 °C 29.94in /  1013.8hPa NW 6.0mph /  9.7km/h 13.0mph /  20.9km/h 73% 0.00in /  0mm
18:39 34.5 °F /  1.4 °C 26.4 °F /  -3.1 °C 29.94in /  1013.8hPa NNW 5.0mph /  8km/h 12.0mph /  19.3km/h 72% 0.00in /  0mm
18:44 34.4 °F /  1.3 °C 26.0 °F /  -3.3 °C 29.94in /  1013.8hPa North 6.0mph /  9.7km/h 11.0mph /  17.7km/h 71% 0.00in /  0mm
18:49 34.1 °F /  1.2 °C 25.7 °F /  -3.5 °C 29.94in /  1013.8hPa NW 6.0mph /  9.7km/h 12.0mph /  19.3km/h 71% 0.00in /  0mm
18:54 33.7 °F /  0.9 °C 26.9 °F /  -2.8 °C 29.94in /  1013.8hPa NW 8.0mph /  12.9km/h 15.0mph /  24.1km/h 76% 0.00in /  0mm
18:59 33.5 °F /  0.8 °C 25.4 °F /  -3.7 °C 29.94in /  1013.8hPa NW 4.0mph /  6.4km/h 15.0mph /  24.1km/h 72% 0.00in /  0mm
19:04 33.3 °F /  0.7 °C 25.3 °F /  -3.7 °C 29.94in /  1013.8hPa NW 4.0mph /  6.4km/h 13.0mph /  20.9km/h 72% 0.00in /  0mm
19:09 33.1 °F /  0.6 °C 25.1 °F /  -3.8 °C 29.94in /  1013.8hPa NNW 6.0mph /  9.7km/h 13.0mph /  20.9km/h 72% 0.00in /  0mm
19:14 32.9 °F /  0.5 °C 24.9 °F /  -3.9 °C 29.95in /  1014.1hPa NW 4.0mph /  6.4km/h 11.0mph /  17.7km/h 72% 0.00in /  0mm
19:19 32.8 °F /  0.4 °C 24.4 °F /  -4.2 °C 29.95in /  1014.1hPa NNW 5.0mph /  8km/h 12.0mph /  19.3km/h 71% 0.00in /  0mm
19:24 32.7 °F /  0.4 °C 24.3 °F /  -4.3 °C 29.95in /  1014.1hPa NNW 6.0mph /  9.7km/h 15.0mph /  24.1km/h 71% 0.00in /  0mm
19:29 32.6 °F /  0.3 °C 24.2 °F /  -4.3 °C 29.95in /  1014.1hPa NNW 7.0mph /  11.3km/h 15.0mph /  24.1km/h 71% 0.00in /  0mm
19:39 32.2 °F /  0.1 °C 23.5 °F /  -4.7 °C 29.95in /  1014.1hPa NNW 5.0mph /  8km/h 10.0mph /  16.1km/h 70% 0.00in /  0mm
19:44 32.0 °F /  0 °C 23.3 °F /  -4.8 °C 29.96in /  1014.4hPa NNW 6.0mph /  9.7km/h 12.0mph /  19.3km/h 70% 0.00in /  0mm
19:49 31.9 °F /  -0.1 °C 23.2 °F /  -4.9 °C 29.95in /  1014.1hPa NNW 5.0mph /  8km/h 12.0mph /  19.3km/h 70% 0.00in /  0mm
19:55 31.7 °F /  -0.2 °C 23.0 °F /  -5 °C 29.96in /  1014.4hPa NNW 7.0mph /  11.3km/h 15.0mph /  24.1km/h 70% 0.00in /  0mm
19:59 31.7 °F /  -0.2 °C 23.0 °F /  -5 °C 29.96in /  1014.4hPa NNW 4.0mph /  6.4km/h 15.0mph /  24.1km/h 70% 0.00in /  0mm
20:04 31.8 °F /  -0.1 °C 22.4 °F /  -5.3 °C 29.96in /  1014.4hPa NNW 8.0mph /  12.9km/h 17.0mph /  27.4km/h 68% 0.00in /  0mm
20:09 31.7 °F /  -0.2 °C 22.4 °F /  -5.3 °C 29.96in /  1014.4hPa North 3.0mph /  4.8km/h 17.0mph /  27.4km/h 68% 0.00in /  0mm
20:14 31.5 °F /  -0.3 °C 22.2 °F /  -5.4 °C 29.97in /  1014.8hPa NNW 3.0mph /  4.8km/h 14.0mph /  22.5km/h 68% 0.00in /  0mm
20:19 31.4 °F /  -0.3 °C 21.7 °F /  -5.7 °C 29.97in /  1014.8hPa NW 6.0mph /  9.7km/h 13.0mph /  20.9km/h 67% 0.00in /  0mm
20:24 31.3 °F /  -0.4 °C 22.0 °F /  -5.6 °C 29.97in /  1014.8hPa NNW 3.0mph /  4.8km/h 13.0mph /  20.9km/h 68% 0.00in /  0mm
20:30 31.2 °F /  -0.4 °C 21.9 °F /  -5.6 °C 29.97in /  1014.8hPa NNW 3.0mph /  4.8km/h 11.0mph /  17.7km/h 68% 0.00in /  0mm
20:39 31.0 °F /  -0.6 °C 21.7 °F /  -5.7 °C 29.97in /  1014.8hPa NW 6.0mph /  9.7km/h 14.0mph /  22.5km/h 68% 0.00in /  0mm
20:44 30.9 °F /  -0.6 °C 21.9 °F /  -5.6 °C 29.98in /  1015.1hPa NNW 3.0mph /  4.8km/h 14.0mph /  22.5km/h 69% 0.00in /  0mm
20:49 30.9 °F /  -0.6 °C 21.6 °F /  -5.8 °C 29.98in /  1015.1hPa NNW 4.0mph /  6.4km/h 13.0mph /  20.9km/h 68% 0.00in /  0mm
20:54 30.8 °F /  -0.7 °C 21.5 °F /  -5.8 °C 29.98in /  1015.1hPa NNW 5.0mph /  8km/h 13.0mph /  20.9km/h 68% 0.00in /  0mm
20:59 30.7 °F /  -0.7 °C 22.1 °F /  -5.5 °C 29.98in /  1015.1hPa NNW 5.0mph /  8km/h 13.0mph /  20.9km/h 70% 0.00in /  0mm
21:04 30.6 °F /  -0.8 °C 21.6 °F /  -5.8 °C 29.99in /  1015.5hPa NNW 3.0mph /  4.8km/h 13.0mph /  20.9km/h 69% 0.00in /  0mm
21:09 30.6 °F /  -0.8 °C 21.3 °F /  -5.9 °C 29.99in /  1015.5hPa NNW 4.0mph /  6.4km/h 9.0mph /  14.5km/h 68% 0.00in /  0mm
21:14 30.6 °F /  -0.8 °C 21.6 °F /  -5.8 °C 29.99in /  1015.5hPa NNW 4.0mph /  6.4km/h 15.0mph /  24.1km/h 69% 0.00in /  0mm
21:19 30.6 °F /  -0.8 °C 21.6 °F /  -5.8 °C 29.99in /  1015.5hPa NW 4.0mph /  6.4km/h 15.0mph /  24.1km/h 69% 0.00in /  0mm
21:24 30.6 °F /  -0.8 °C 21.6 °F /  -5.8 °C 29.99in /  1015.5hPa North 5.0mph /  8km/h 12.0mph /  19.3km/h 69% 0.00in /  0mm
21:29 30.5 °F /  -0.8 °C 21.5 °F /  -5.8 °C 29.99in /  1015.5hPa NNW 7.0mph /  11.3km/h 13.0mph /  20.9km/h 69% 0.00in /  0mm
21:34 30.5 °F /  -0.8 °C 21.9 °F /  -5.6 °C 29.99in /  1015.5hPa NNW 5.0mph /  8km/h 13.0mph /  20.9km/h 70% 0.00in /  0mm
21:39 30.2 °F /  -1 °C 22.3 °F /  -5.4 °C 29.99in /  1015.5hPa North 3.0mph /  4.8km/h 15.0mph /  24.1km/h 72% 0.00in /  0mm
21:44 30.0 °F /  -1.1 °C 22.4 °F /  -5.3 °C 30.00in /  1015.8hPa NNE 1.0mph /  1.6km/h 15.0mph /  24.1km/h 73% 0.00in /  0mm
21:49 29.8 °F /  -1.2 °C 22.2 °F /  -5.4 °C 30.00in /  1015.8hPa NNE 1.0mph /  1.6km/h 6.0mph /  9.7km/h 73% 0.00in /  0mm
21:54 29.7 °F /  -1.3 °C 22.1 °F /  -5.5 °C 30.00in /  1015.8hPa North 1.0mph /  1.6km/h 5.0mph /  8km/h 73% 0.00in /  0mm
21:59 29.6 °F /  -1.3 °C 22.0 °F /  -5.6 °C 30.00in /  1015.8hPa NNE 1.0mph /  1.6km/h 5.0mph /  8km/h 73% 0.00in /  0mm
22:04 29.5 °F /  -1.4 °C 21.6 °F /  -5.8 °C 30.00in /  1015.8hPa North 2.0mph /  3.2km/h 5.0mph /  8km/h 72% 0.00in /  0mm
22:09 29.4 °F /  -1.4 °C 21.5 °F /  -5.8 °C 29.99in /  1015.5hPa Calm   5.0mph /  8km/h 72% 0.00in /  0mm
22:14 29.4 °F /  -1.4 °C 21.5 °F /  -5.8 °C 29.99in /  1015.5hPa North 2.0mph /  3.2km/h 7.0mph /  11.3km/h 72% 0.00in /  0mm
22:19 29.4 °F /  -1.4 °C 20.5 °F /  -6.4 °C 30.00in /  1015.8hPa North 3.0mph /  4.8km/h 7.0mph /  11.3km/h 69% 0.00in /  0mm
22:24 29.4 °F /  -1.4 °C 19.8 °F /  -6.8 °C 30.00in /  1015.8hPa NNW 4.0mph /  6.4km/h 15.0mph /  24.1km/h 67% 0.00in /  0mm
22:29 29.3 °F /  -1.5 °C 19.7 °F /  -6.8 °C 30.00in /  1015.8hPa North 5.0mph /  8km/h 15.0mph /  24.1km/h 67% 0.00in /  0mm
22:34 29.2 °F /  -1.6 °C 20.0 °F /  -6.7 °C 29.99in /  1015.5hPa North 4.0mph /  6.4km/h 14.0mph /  22.5km/h 68% 0.00in /  0mm
22:39 29.0 °F /  -1.7 °C 19.8 °F /  -6.8 °C 29.99in /  1015.5hPa NNE 4.0mph /  6.4km/h 11.0mph /  17.7km/h 68% 0.00in /  0mm
22:44 28.8 °F /  -1.8 °C 19.6 °F /  -6.9 °C 30.00in /  1015.8hPa NNE 5.0mph /  8km/h 11.0mph /  17.7km/h 68% 0.00in /  0mm
22:49 28.6 °F /  -1.9 °C 19.0 °F /  -7.2 °C 29.99in /  1015.5hPa NNE 4.0mph /  6.4km/h 16.0mph /  25.7km/h 67% 0.00in /  0mm
22:54 28.4 °F /  -2 °C 18.5 °F /  -7.5 °C 29.99in /  1015.5hPa North 3.0mph /  4.8km/h 16.0mph /  25.7km/h 66% 0.00in /  0mm
22:59 28.2 °F /  -2.1 °C 17.6 °F /  -8 °C 29.99in /  1015.5hPa NNE 5.0mph /  8km/h 15.0mph /  24.1km/h 64% 0.00in /  0mm
23:04 27.9 °F /  -2.3 °C 17.3 °F /  -8.2 °C 29.99in /  1015.5hPa NNE 4.0mph /  6.4km/h 15.0mph /  24.1km/h 64% 0.00in /  0mm
23:09 27.7 °F /  -2.4 °C 17.1 °F /  -8.3 °C 29.99in /  1015.5hPa NNE 5.0mph /  8km/h 13.0mph /  20.9km/h 64% 0.00in /  0mm
23:14 27.5 °F /  -2.5 °C 16.6 °F /  -8.6 °C 29.99in /  1015.5hPa NNE 4.0mph /  6.4km/h 13.0mph /  20.9km/h 63% 0.00in /  0mm
23:19 27.3 °F /  -2.6 °C 16.4 °F /  -8.7 °C 29.99in /  1015.5hPa NNE 2.0mph /  3.2km/h 16.0mph /  25.7km/h 63% 0.00in /  0mm
23:24 27.1 °F /  -2.7 °C 15.8 °F /  -9 °C 29.99in /  1015.5hPa North 3.0mph /  4.8km/h 16.0mph /  25.7km/h 62% 0.00in /  0mm
23:29 26.9 °F /  -2.8 °C 15.6 °F /  -9.1 °C 29.99in /  1015.5hPa North 3.0mph /  4.8km/h 10.0mph /  16.1km/h 62% 0.00in /  0mm
23:34 26.7 °F /  -2.9 °C 15.1 °F /  -9.4 °C 29.99in /  1015.5hPa North 3.0mph /  4.8km/h 10.0mph /  16.1km/h 61% 0.00in /  0mm
23:39 26.6 °F /  -3 °C 15.0 °F /  -9.4 °C 29.99in /  1015.5hPa North 2.0mph /  3.2km/h 11.0mph /  17.7km/h 61% 0.00in /  0mm
23:44 26.5 °F /  -3.1 °C 15.2 °F /  -9.3 °C 29.98in /  1015.1hPa North 2.0mph /  3.2km/h 11.0mph /  17.7km/h 62% 0.00in /  0mm
23:49 26.2 °F /  -3.2 °C 14.6 °F /  -9.7 °C 29.98in /  1015.1hPa North 4.0mph /  6.4km/h 15.0mph /  24.1km/h 61% 0.00in /  0mm
23:54 26.1 °F /  -3.3 °C 14.9 °F /  -9.5 °C 29.98in /  1015.1hPa North 1.0mph /  1.6km/h 15.0mph /  24.1km/h 62% 0.00in /  0mm
23:59 25.8 °F /  -3.4 °C 14.9 °F /  -9.5 °C 29.98in /  1015.1hPa North 1.0mph /  1.6km/h 12.0mph /  19.3km/h 63% 0.00in /  0mm
Westford Weather
Compliments of Weather Underground

 
 
Current Radar Loop:

Copyright © WestfordWeather.net 2007-2014. All rights reserved.